Terminal Aerodrome Forecast
Issued by NWS

Home | Current Version | Previous Version | Text Only | Print | Product List | Glossary On
Versions: 1 2 3 4 5 6 7 8 9 10 11 12 13 14 15 16 17 18 19 20 21 22 23 24 25 26 27 28 29 30 31 32 33 34
000
FTUS41 KBOX 042330
TAFHYA
TAF
KHYA 042330Z 0500/0524 23005KT 3SM BR SCT070 OVC110
     FM050300 27005KT 3SM -RASN BR OVC045
     FM050500 29006KT 2SM -RASN BR OVC020
     FM050600 30007KT 1SM -SNPL OVC008
     FM050900 31008KT 1SM -SN OVC008
     FM051600 34010KT P6SM OVC025
     FM052100 34009KT P6SM OVC050=

USA.gov is the U.S. government's official web portal to all federal, state and local government web resources and services.